Station Historical Data
Daily Summary for September 2, 2017 Units:  Metric    English   Both
« Previous Day
Next Day »
Daily Weekly Monthly Yearly Custom
  High: Low: Average:
Temperature: 22 °C 6.1 °C 14.4 °C
Dew Point: 12 °C 3 °C 7.2 °C
Humidity: 86% 32% 65%
Wind Speed: 16.1km/h 0km/h 3.4km/h
Wind Gust: 22.5km/h - -
Wind- - SE
Pressure: 1023.2 hPa 1014.4 hPa -
Precipitation: 0 mm    
Historical Graphs
 
 
Tabular Data for September 2, 2017
Time Temperature Dew Point Pressure Wind Wind Speed Wind Gust Humidity Rainfall Rate (Hourly)
00:04 9.6 °C 6.3 °C 1022.9 hPa Calm     80% 0 mm
00:09 9.2 °C 6.1 °C 1022.9 hPa Calm     81% 0 mm
00:14 9.4 °C 6.3 °C 1022.9 hPa Calm     81% 0 mm
00:19 9.5 °C 6.4 °C 1022.9 hPa Calm     81% 0 mm
00:24 9.4 °C 6.3 °C 1023.2 hPa Calm     81% 0 mm
00:29 9.4 °C 6.3 °C 1023.2 hPa Calm     81% 0 mm
00:34 9.3 °C 6.2 °C 1022.9 hPa Calm     81% 0 mm
00:39 9.2 °C 6.1 °C 1022.9 hPa Calm     81% 0 mm
00:44 9.2 °C 6.1 °C 1023.2 hPa Calm     81% 0 mm
00:49 9.1 °C 6.2 °C 1023.2 hPa Calm     82% 0 mm
00:54 9 °C 6.1 °C 1023.2 hPa Calm     82% 0 mm
00:59 8.9 °C 6 °C 1023.2 hPa Calm     82% 0 mm
01:04 8.7 °C 5.8 °C 1023.2 hPa Calm     82% 0 mm
01:09 8.6 °C 5.8 °C 1023.2 hPa Calm     83% 0 mm
01:14 8.6 °C 5.8 °C 1023.2 hPa Calm     83% 0 mm
01:19 8.4 °C 5.7 °C 1023.2 hPa Calm     83% 0 mm
01:24 8.3 °C 5.7 °C 1023.2 hPa Calm     84% 0 mm
01:29 8.2 °C 5.6 °C 1022.9 hPa Calm     84% 0 mm
01:34 8.3 °C 5.9 °C 1022.9 hPa Calm     85% 0 mm
01:39 8.4 °C 6 °C 1022.9 hPa Calm     85% 0 mm
01:44 8.5 °C 5.9 °C 1022.9 hPa Calm     84% 0 mm
01:49 8.4 °C 5.9 °C 1022.9 hPa Calm     84% 0 mm
01:54 8.4 °C 5.9 °C 1022.9 hPa Calm     84% 0 mm
01:59 8.4 °C 5.9 °C 1022.9 hPa Calm     84% 0 mm
02:04 8.4 °C 5.8 °C 1022.9 hPa Calm     84% 0 mm
02:09 8.3 °C 5.7 °C 1022.9 hPa Calm     84% 0 mm
02:14 8.1 °C 5.6 °C 1022.6 hPa Calm     84% 0 mm
02:19 7.9 °C 5.4 °C 1022.6 hPa Calm     84% 0 mm
02:24 7.8 °C 5.4 °C 1022.6 hPa Calm     85% 0 mm
02:29 7.7 °C 5.3 °C 1022.6 hPa Calm     85% 0 mm
02:34 7.6 °C 5.4 °C 1022.6 hPa Calm     86% 0 mm
02:39 7.4 °C 5.3 °C 1022.6 hPa Calm     86% 0 mm
02:44 7.5 °C 5.3 °C 1022.6 hPa Calm     86% 0 mm
02:49 7.6 °C 5.4 °C 1022.6 hPa Calm     86% 0 mm
02:54 7.5 °C 5.3 °C 1022.6 hPa Calm     86% 0 mm
02:59 7.5 °C 5.3 °C 1022.6 hPa Calm     86% 0 mm
03:04 7.4 °C 5.3 °C 1022.6 hPa Calm     86% 0 mm
03:09 7.4 °C 5.2 °C 1022.6 hPa Calm     86% 0 mm
03:14 7.3 °C 5.2 °C 1022.6 hPa Calm     86% 0 mm
03:19 7.3 °C 5.2 °C 1022.6 hPa Calm     86% 0 mm
03:24 7.3 °C 5.2 °C 1022.6 hPa Calm     86% 0 mm
03:29 7.3 °C 5.2 °C 1022.6 hPa Calm     86% 0 mm
03:34 7.3 °C 5 °C 1022.2 hPa Calm     85% 0 mm
03:39 7.3 °C 4.9 °C 1022.2 hPa Calm     85% 0 mm
03:44 7.3 °C 5 °C 1022.2 hPa Calm     85% 0 mm
03:49 7.3 °C 4.9 °C 1022.2 hPa Calm     85% 0 mm
03:54 7.3 °C 4.9 °C 1022.2 hPa Calm     85% 0 mm
03:59 7.3 °C 4.8 °C 1022.2 hPa Calm     84% 0 mm
04:04 7.3 °C 4.8 °C 1022.2 hPa Calm     84% 0 mm
04:09 7.3 °C 4.8 °C 1022.2 hPa Calm     84% 0 mm
04:14 7.2 °C 4.7 °C 1022.2 hPa Calm     84% 0 mm
04:19 7 °C 4.5 °C 1022.2 hPa Calm     84% 0 mm
04:24 6.9 °C 4.6 °C 1021.9 hPa Calm     85% 0 mm
04:29 6.9 °C 4.6 °C 1021.9 hPa Calm     85% 0 mm
04:34 6.8 °C 4.5 °C 1021.9 hPa Calm     85% 0 mm
04:39 6.8 °C 4.4 °C 1021.9 hPa Calm     85% 0 mm
04:44 6.8 °C 4.4 °C 1021.9 hPa Calm     85% 0 mm
04:49 6.8 °C 4.5 °C 1021.9 hPa Calm     85% 0 mm
04:54 6.8 °C 4.5 °C 1021.9 hPa Calm     85% 0 mm
04:59 6.9 °C 4.4 °C 1021.9 hPa Calm     84% 0 mm
05:04 6.9 °C 4.4 °C 1022.2 hPa Calm     84% 0 mm
05:09 6.9 °C 4.4 °C 1022.2 hPa Calm     84% 0 mm
05:14 6.8 °C 4.3 °C 1021.9 hPa Calm     84% 0 mm
05:19 6.8 °C 4.3 °C 1021.9 hPa Calm     84% 0 mm
05:24 6.8 °C 4.3 °C 1021.9 hPa Calm     84% 0 mm
05:29 6.8 °C 4.3 °C 1021.9 hPa Calm     84% 0 mm
05:34 6.8 °C 4.3 °C 1021.6 hPa Calm     84% 0 mm
05:39 6.7 °C 4.2 °C 1021.9 hPa Calm     84% 0 mm
05:44 6.6 °C 4.1 °C 1021.6 hPa Calm     84% 0 mm
05:49 6.6 °C 4.1 °C 1021.9 hPa Calm     84% 0 mm
05:54 6.6 °C 3.9 °C 1021.6 hPa Calm     83% 0 mm
05:59 6.5 °C 3.8 °C 1021.9 hPa Calm     83% 0 mm
06:04 6.4 °C 3.7 °C 1021.6 hPa Calm     83% 0 mm
06:09 6.3 °C 3.7 °C 1021.6 hPa Calm     83% 0 mm
06:14 6.3 °C 3.6 °C 1021.6 hPa Calm     83% 0 mm
06:19 6.2 °C 3.6 °C 1021.6 hPa Calm     83% 0 mm
06:24 6.2 °C 3.7 °C 1021.6 hPa Calm     84% 0 mm
06:29 6.2 °C 3.6 °C 1021.6 hPa Calm     83% 0 mm
06:34 6.2 °C 3.5 °C 1021.6 hPa Calm     83% 0 mm
06:39 6.2 °C 3.5 °C 1021.6 hPa Calm     83% 0 mm
06:44 6.2 °C 3.5 °C 1021.6 hPa Calm     83% 0 mm
06:49 6.1 °C 3.4 °C 1021.6 hPa Calm     83% 0 mm
06:54 6.1 °C 3.4 °C 1021.6 hPa Calm     83% 0 mm
06:59 6.2 °C 3.5 °C 1021.6 hPa Calm     83% 0 mm
07:04 6.4 °C 3.7 °C 1021.6 hPa Calm     83% 0 mm
07:09 6.7 °C 3.8 °C 1021.6 hPa Calm     82% 0 mm
07:14 6.8 °C 3.8 °C 1021.6 hPa Calm     81% 0 mm
07:19 7.1 °C 3.9 °C 1021.6 hPa Calm     80% 0 mm
07:24 7.3 °C 3.9 °C 1021.6 hPa Calm     79% 0 mm
07:29 7.5 °C 4.1 °C 1021.2 hPa Calm     79% 0 mm
07:34 7.7 °C 4.1 °C 1021.6 hPa Calm     78% 0 mm
07:39 8 °C 4.2 °C 1021.6 hPa Calm     77% 0 mm
07:44 8.3 °C 4.3 °C 1021.2 hPa Calm     76% 0 mm
07:49 8.8 °C 4.6 °C 1021.2 hPa Calm     75% 0 mm
07:54 9.2 °C 4.8 °C 1021.2 hPa ENE 1.6 km/h 6.4 km/h 74% 0 mm
07:59 9.6 °C 5 °C 1021.2 hPa ENE 1.6 km/h 8 km/h 73% 0 mm
08:04 10.1 °C 5.1 °C 1021.2 hPa ENE 1.6 km/h 8 km/h 71% 0 mm
08:09 10.5 °C 5.4 °C 1021.2 hPa Calm   8 km/h 71% 0 mm
08:14 10.9 °C 5.6 °C 1021.2 hPa ESE 1.6 km/h 8 km/h 70% 0 mm
08:19 11.4 °C 5.7 °C 1021.2 hPa East 3.2 km/h 9.7 km/h 68% 0 mm
08:24 11.8 °C 5.8 °C 1021.2 hPa East 8 km/h 11.3 km/h 67% 0 mm
08:29 12.1 °C 5.9 °C 1021.2 hPa Calm   11.3 km/h 66% 0 mm
08:34 12.5 °C 5.9 °C 1021.2 hPa East 8 km/h 14.5 km/h 64% 0 mm
08:39 12.9 °C 6.3 °C 1021.2 hPa East 3.2 km/h 9.7 km/h 64% 0 mm
08:44 13.2 °C 6.1 °C 1021.2 hPa East 1.6 km/h 16.1 km/h 62% 0 mm
08:49 13.3 °C 5.9 °C 1021.2 hPa East 8 km/h 20.9 km/h 61% 0 mm
08:54 13.4 °C 6 °C 1021.2 hPa East 8 km/h 20.9 km/h 61% 0 mm
08:59 13.6 °C 6.2 °C 1021.2 hPa East 6.4 km/h 14.5 km/h 61% 0 mm
09:04 13.8 °C 6.4 °C 1021.2 hPa East 4.8 km/h 14.5 km/h 61% 0 mm
09:09 14.1 °C 6.7 °C 1021.2 hPa ESE 4.8 km/h 11.3 km/h 61% 0 mm
09:14 14.4 °C 6.5 °C 1020.9 hPa East 11.3 km/h 12.9 km/h 59% 0 mm
09:19 14.6 °C 6.6 °C 1020.9 hPa East 8 km/h 16.1 km/h 59% 0 mm
09:24 14.6 °C 6.4 °C 1020.9 hPa East 4.8 km/h 17.7 km/h 58% 0 mm
09:29 14.8 °C 6.1 °C 1020.9 hPa ENE 8 km/h 12.9 km/h 56% 0 mm
09:34 15.2 °C 6.4 °C 1020.5 hPa ESE 4.8 km/h 14.5 km/h 56% 0 mm
09:39 15.4 °C 6.2 °C 1020.5 hPa East 4.8 km/h 12.9 km/h 54% 0 mm
09:44 15.7 °C 5.8 °C 1020.5 hPa East 12.9 km/h 20.9 km/h 52% 0 mm
09:49 15.7 °C 6.2 °C 1020.5 hPa East 8 km/h 20.9 km/h 53% 0 mm
09:54 16.2 °C 6.6 °C 1020.9 hPa East 8 km/h 17.7 km/h 53% 0 mm
09:59 16.5 °C 6.1 °C 1020.5 hPa East 6.4 km/h 17.7 km/h 50% 0 mm
10:04 16.8 °C 6.3 °C 1020.5 hPa East 6.4 km/h 14.5 km/h 50% 0 mm
10:09 17.2 °C 6.7 °C 1020.9 hPa East 4.8 km/h 12.9 km/h 50% 0 mm
10:14 17.5 °C 6.3 °C 1020.9 hPa ESE 3.2 km/h 14.5 km/h 48% 0 mm
10:19 17.2 °C 5.8 °C 1020.5 hPa ESE 3.2 km/h 17.7 km/h 47% 0 mm
10:24 17.6 °C 5.2 °C 1020.5 hPa ESE 6.4 km/h 17.7 km/h 44% 0 mm
10:29 17.7 °C 5.3 °C 1020.5 hPa SE 6.4 km/h 14.5 km/h 44% 0 mm
10:34 17.8 °C 5.7 °C 1020.5 hPa ESE 6.4 km/h 14.5 km/h 45% 0 mm
10:39 18 °C 6.2 °C 1020.5 hPa East 4.8 km/h 9.7 km/h 46% 0 mm
10:44 18.5 °C 6 °C 1020.5 hPa SE 4.8 km/h 14.5 km/h 44% 0 mm
10:49 18.6 °C 5.4 °C 1020.5 hPa East 16.1 km/h 16.1 km/h 42% 0 mm
10:54 18.6 °C 5.1 °C 1020.5 hPa SE 6.4 km/h 17.7 km/h 41% 0 mm
10:59 18.4 °C 4.6 °C 1020.5 hPa SE 8 km/h 17.7 km/h 40% 0 mm
11:04 18.6 °C 5.1 °C 1020.2 hPa East 4.8 km/h 12.9 km/h 41% 0 mm
11:09 18.9 °C 4.7 °C 1020.5 hPa ESE 6.4 km/h 12.9 km/h 39% 0 mm
11:14 19.2 °C 4.9 °C 1020.5 hPa SSE 4.8 km/h 16.1 km/h 39% 0 mm
11:19 19.3 °C 4.9 °C 1020.5 hPa NE 8 km/h 14.5 km/h 39% 0 mm
11:24 19.4 °C 4.7 °C 1020.2 hPa East 8 km/h 14.5 km/h 38% 0 mm
11:29 19.7 °C 5.4 °C 1020.2 hPa ESE 8 km/h 14.5 km/h 39% 0 mm
11:34 20 °C 5.2 °C 1020.2 hPa East 8 km/h 20.9 km/h 38% 0 mm
11:39 20.2 °C 4.3 °C 1020.2 hPa East 9.7 km/h 20.9 km/h 35% 0 mm
11:44 20.4 °C 3.6 °C 1020.2 hPa SSE 12.9 km/h 14.5 km/h 33% 0 mm
11:49 20.2 °C 5.1 °C 1019.9 hPa SE 6.4 km/h 16.1 km/h 37% 0 mm
11:54 20.6 °C 4.9 °C 1019.9 hPa ESE 8 km/h 17.7 km/h 36% 0 mm
11:59 20.4 °C 4 °C 1019.9 hPa ESE 8 km/h 17.7 km/h 34% 0 mm
12:04 20.4 °C 4.8 °C 1019.9 hPa ESE 9.7 km/h 17.7 km/h 36% 0 mm
12:09 20.6 °C 3.7 °C 1019.9 hPa ESE 9.7 km/h 22.5 km/h 33% 0 mm
12:14 20.6 °C 3.7 °C 1019.9 hPa SSE 12.9 km/h 17.7 km/h 33% 0 mm
12:19 20.2 °C 3 °C 1019.5 hPa SE 9.7 km/h 19.3 km/h 32% 0 mm
12:24 20.4 °C 4.1 °C 1019.5 hPa East 9.7 km/h 17.7 km/h 34% 0 mm
12:29 19.9 °C 4 °C 1019.5 hPa SE 12.9 km/h 17.7 km/h 35% 0 mm
12:34 19.2 °C 3.8 °C 1019.5 hPa SSE 9.7 km/h 17.7 km/h 36% 0 mm
12:39 19.3 °C 4.6 °C 1019.2 hPa SE 8 km/h 17.7 km/h 38% 0 mm
12:44 19.4 °C 3.5 °C 1019.2 hPa SE 6.4 km/h 16.1 km/h 35% 0 mm
12:49 19.1 °C 3.7 °C 1019.2 hPa ESE 6.4 km/h 14.5 km/h 36% 0 mm
12:54 19.1 °C 3.7 °C 1019.2 hPa South 3.2 km/h 14.5 km/h 36% 0 mm
12:59 19.7 °C 4.9 °C 1019.2 hPa SE 4.8 km/h 14.5 km/h 38% 0 mm
13:04 20.2 °C 5.4 °C 1019.2 hPa ESE 6.4 km/h 14.5 km/h 38% 0 mm
13:09 20 °C 4.8 °C 1018.8 hPa East 3.2 km/h 14.5 km/h 37% 0 mm
13:14 20.2 °C 5.4 °C 1018.8 hPa SE 4.8 km/h 16.1 km/h 38% 0 mm
13:19 19.9 °C 5.2 °C 1018.8 hPa SE 11.3 km/h 16.1 km/h 38% 0 mm
13:24 19.8 °C 5.1 °C 1018.8 hPa East 9.7 km/h 12.9 km/h 38% 0 mm
13:29 19.8 °C 5.4 °C 1018.8 hPa SE 9.7 km/h 16.1 km/h 39% 0 mm
13:34 19.9 °C 5.2 °C 1018.8 hPa East 6.4 km/h 16.1 km/h 38% 0 mm
13:39 20.2 °C 5.8 °C 1018.5 hPa East 8 km/h 16.1 km/h 39% 0 mm
13:44 20.4 °C 6.4 °C 1018.5 hPa ESE 6.4 km/h 14.5 km/h 40% 0 mm
13:49 20.5 °C 5.7 °C 1018.5 hPa ESE 4.8 km/h 14.5 km/h 38% 0 mm
13:54 21.3 °C 6.8 °C 1018.5 hPa ESE 4.8 km/h 17.7 km/h 39% 0 mm
13:59 21.6 °C 7.4 °C 1018.2 hPa ESE 4.8 km/h 17.7 km/h 40% 0 mm
14:04 21.8 °C 6.9 °C 1018.2 hPa East 4.8 km/h 20.9 km/h 38% 0 mm
14:09 21.9 °C 6.9 °C 1018.2 hPa East 6.4 km/h 20.9 km/h 38% 0 mm
14:14 22 °C 7 °C 1018.2 hPa East 14.5 km/h 14.5 km/h 38% 0 mm
14:19 21.4 °C 7.3 °C 1018.2 hPa ENE 8 km/h 14.5 km/h 40% 0 mm
14:24 21.9 °C 8.4 °C 1018.2 hPa East 4.8 km/h 11.3 km/h 42% 0 mm
14:29 21.4 °C 6.9 °C 1017.8 hPa ENE 3.2 km/h 12.9 km/h 39% 0 mm
14:34 21.4 °C 7.2 °C 1017.8 hPa NE 4.8 km/h 12.9 km/h 40% 0 mm
14:39 21 °C 7.2 °C 1017.8 hPa ENE 6.4 km/h 14.5 km/h 41% 0 mm
14:44 20.7 °C 7.3 °C 1017.8 hPa ENE 4.8 km/h 14.5 km/h 42% 0 mm
14:49 21.1 °C 7.3 °C 1017.5 hPa ENE 4.8 km/h 16.1 km/h 41% 0 mm
14:54 20.9 °C 7.1 °C 1017.5 hPa ENE 4.8 km/h 17.7 km/h 41% 0 mm
14:59 21 °C 8.3 °C 1017.5 hPa ENE 6.4 km/h 17.7 km/h 44% 0 mm
15:04 21.7 °C 8.6 °C 1017.5 hPa ENE 6.4 km/h 16.1 km/h 43% 0 mm
15:09 21.8 °C 8.3 °C 1017.5 hPa SSE 1.6 km/h 17.7 km/h 42% 0 mm
15:14 21.8 °C 8.7 °C 1017.2 hPa East 6.4 km/h 17.7 km/h 43% 0 mm
15:19 21.4 °C 8.3 °C 1017.2 hPa NNE 4.8 km/h 16.1 km/h 43% 0 mm
15:24 21.7 °C 8.9 °C 1017.2 hPa ENE 4.8 km/h 12.9 km/h 44% 0 mm
15:29 21.8 °C 9 °C 1016.8 hPa NE 8 km/h 11.3 km/h 44% 0 mm
15:34 21.3 °C 8.8 °C 1016.8 hPa East 4.8 km/h 17.7 km/h 45% 0 mm
15:39 21.3 °C 8.8 °C 1016.8 hPa SE 6.4 km/h 12.9 km/h 45% 0 mm
15:44 21.3 °C 9.8 °C 1016.8 hPa ENE 4.8 km/h 12.9 km/h 48% 0 mm
15:49 21 °C 8.9 °C 1016.8 hPa ENE 6.4 km/h 17.7 km/h 46% 0 mm
15:54 20.8 °C 9.7 °C 1016.8 hPa ENE 6.4 km/h 17.7 km/h 49% 0 mm
15:59 20.6 °C 9.5 °C 1016.8 hPa ENE 4.8 km/h 12.9 km/h 49% 0 mm
16:04 20.7 °C 9.6 °C 1016.8 hPa ENE 4.8 km/h 12.9 km/h 49% 0 mm
16:09 20.7 °C 9.3 °C 1016.8 hPa NE 1.6 km/h 11.3 km/h 48% 0 mm
16:14 20.7 °C 9.6 °C 1016.8 hPa ENE 4.8 km/h 9.7 km/h 49% 0 mm
16:19 20.7 °C 9.9 °C 1016.8 hPa SSE 3.2 km/h 14.5 km/h 50% 0 mm
16:24 20.4 °C 9.9 °C 1016.8 hPa South 9.7 km/h 11.3 km/h 51% 0 mm
16:29 20 °C 11.2 °C 1016.8 hPa SSE 12.9 km/h 17.7 km/h 57% 0 mm
16:34 18.6 °C 11.7 °C 1016.8 hPa South 3.2 km/h 16.1 km/h 64% 0 mm
16:39 17.9 °C 11.7 °C 1016.8 hPa Calm   14.5 km/h 67% 0 mm
16:44 18 °C 12 °C 1016.8 hPa SSE 3.2 km/h 11.3 km/h 68% 0 mm
16:49 18.1 °C 11.7 °C 1016.8 hPa South 3.2 km/h 11.3 km/h 66% 0 mm
16:54 18.3 °C 11.6 °C 1016.5 hPa SSE 3.2 km/h 9.7 km/h 65% 0 mm
16:59 18.3 °C 11.2 °C 1016.5 hPa SSE 3.2 km/h 8 km/h 63% 0 mm
17:04 18.5 °C 10.8 °C 1016.5 hPa SE 3.2 km/h 8 km/h 61% 0 mm
17:09 18.7 °C 10.5 °C 1016.5 hPa SSE 3.2 km/h 9.7 km/h 59% 0 mm
17:14 18.7 °C 10.2 °C 1016.5 hPa SSE 4.8 km/h 9.7 km/h 58% 0 mm
17:19 18.7 °C 10.5 °C 1016.5 hPa SE 3.2 km/h 11.3 km/h 59% 0 mm
17:24 18.7 °C 10 °C 1016.5 hPa SSE 3.2 km/h 9.7 km/h 57% 0 mm
17:29 18.6 °C 10.2 °C 1016.5 hPa SE 4.8 km/h 8 km/h 58% 0 mm
17:34 18.5 °C 9.6 °C 1016.5 hPa SSE 6.4 km/h 11.3 km/h 56% 0 mm
17:39 18.4 °C 9.4 °C 1016.5 hPa South 3.2 km/h 8 km/h 56% 0 mm
17:44 18.5 °C 9.6 °C 1016.5 hPa South 1.6 km/h 9.7 km/h 56% 0 mm
17:49 18.6 °C 9.6 °C 1016.5 hPa SSE 3.2 km/h 9.7 km/h 56% 0 mm
17:54 18.6 °C 9.4 °C 1016.1 hPa SE 3.2 km/h 9.7 km/h 55% 0 mm
17:59 18.7 °C 9.4 °C 1016.1 hPa SE 3.2 km/h 8 km/h 55% 0 mm
18:04 18.7 °C 9.4 °C 1016.1 hPa SE 3.2 km/h 6.4 km/h 55% 0 mm
18:09 18.6 °C 9.4 °C 1016.1 hPa SE 3.2 km/h 6.4 km/h 55% 0 mm
18:14 18.6 °C 9.6 °C 1016.1 hPa Calm   4.8 km/h 56% 0 mm
18:19 18.4 °C 10 °C 1016.1 hPa Calm   6.4 km/h 58% 0 mm
18:24 18.4 °C 10 °C 1016.1 hPa SSE 1.6 km/h 6.4 km/h 58% 0 mm
18:29 18.4 °C 10 °C 1016.1 hPa South 1.6 km/h 6.4 km/h 58% 0 mm
18:34 18.4 °C 10.2 °C 1016.1 hPa South 1.6 km/h 6.4 km/h 59% 0 mm
18:39 18.4 °C 10.3 °C 1016.1 hPa South 1.6 km/h 6.4 km/h 59% 0 mm
18:44 18.4 °C 10.6 °C 1016.1 hPa SSE 3.2 km/h 8 km/h 60% 0 mm
18:49 18.4 °C 10.8 °C 1016.1 hPa SSW 3.2 km/h 9.7 km/h 61% 0 mm
18:54 18.4 °C 10.7 °C 1016.1 hPa South 4.8 km/h 9.7 km/h 61% 0 mm
18:59 18.3 °C 10.9 °C 1016.1 hPa South 3.2 km/h 6.4 km/h 62% 0 mm
19:04 18.4 °C 11 °C 1015.8 hPa Calm   3.2 km/h 62% 0 mm
19:09 18.3 °C 11.2 °C 1015.8 hPa SSW 3.2 km/h 9.7 km/h 63% 0 mm
19:14 18.3 °C 10.9 °C 1015.8 hPa SSW 8 km/h 11.3 km/h 62% 0 mm
19:19 18.1 °C 10.7 °C 1015.8 hPa SSE 6.4 km/h 12.9 km/h 62% 0 mm
19:24 18.1 °C 10.9 °C 1015.8 hPa Calm   9.7 km/h 63% 0 mm
19:29 18.1 °C 10.9 °C 1015.8 hPa SSE 6.4 km/h 14.5 km/h 63% 0 mm
19:34 17.9 °C 11.1 °C 1015.8 hPa SSE 6.4 km/h 14.5 km/h 64% 0 mm
19:39 17.9 °C 11 °C 1015.8 hPa South 4.8 km/h 14.5 km/h 64% 0 mm
19:44 17.8 °C 11.1 °C 1015.8 hPa South 3.2 km/h 14.5 km/h 65% 0 mm
19:49 17.6 °C 11.1 °C 1015.8 hPa South 6.4 km/h 11.3 km/h 66% 0 mm
19:54 17.4 °C 11 °C 1015.8 hPa SE 6.4 km/h 11.3 km/h 66% 0 mm
19:59 17.3 °C 10.9 °C 1015.8 hPa South 3.2 km/h 12.9 km/h 66% 0 mm
20:04 17.3 °C 11.1 °C 1015.8 hPa South 4.8 km/h 12.9 km/h 67% 0 mm
20:09 17.2 °C 11 °C 1015.8 hPa South 4.8 km/h 11.3 km/h 67% 0 mm
20:14 17.1 °C 11.2 °C 1015.5 hPa South 4.8 km/h 12.9 km/h 68% 0 mm
20:19 17.1 °C 10.9 °C 1015.8 hPa SE 8 km/h 14.5 km/h 67% 0 mm
20:24 16.9 °C 10.8 °C 1015.8 hPa SSE 1.6 km/h 17.7 km/h 67% 0 mm
20:29 16.8 °C 10.9 °C 1015.8 hPa SE 8 km/h 16.1 km/h 68% 0 mm
20:34 16.7 °C 10.8 °C 1015.8 hPa SSE 6.4 km/h 16.1 km/h 68% 0 mm
20:39 16.7 °C 10.7 °C 1015.5 hPa SSE 6.4 km/h 16.1 km/h 68% 0 mm
20:44 16.6 °C 10.9 °C 1015.5 hPa SSE 6.4 km/h 14.5 km/h 69% 0 mm
20:49 16.6 °C 10.8 °C 1015.5 hPa SSE 4.8 km/h 14.5 km/h 69% 0 mm
20:54 16.6 °C 10.8 °C 1015.5 hPa SE 4.8 km/h 12.9 km/h 69% 0 mm
20:59 16.5 °C 10.8 °C 1015.5 hPa ESE 4.8 km/h 11.3 km/h 69% 0 mm
21:04 16.5 °C 11 °C 1015.5 hPa SE 4.8 km/h 11.3 km/h 70% 0 mm
21:09 16.4 °C 10.7 °C 1015.5 hPa SE 4.8 km/h 11.3 km/h 69% 0 mm
21:14 16.4 °C 10.7 °C 1015.5 hPa SE 8 km/h 8 km/h 69% 0 mm
21:19 16.3 °C 10.8 °C 1015.5 hPa SE 4.8 km/h 12.9 km/h 70% 0 mm
21:24 16.3 °C 10.8 °C 1015.5 hPa SSE 4.8 km/h 8 km/h 70% 0 mm
21:29 16.3 °C 10.8 °C 1015.5 hPa SSE 4.8 km/h 8 km/h 70% 0 mm
21:34 16.3 °C 10.8 °C 1015.5 hPa Calm   8 km/h 70% 0 mm
21:39 16.3 °C 10.8 °C 1015.5 hPa SSE 4.8 km/h 12.9 km/h 70% 0 mm
21:44 16.2 °C 10.7 °C 1015.5 hPa SSE 4.8 km/h 12.9 km/h 70% 0 mm
21:49 16.2 °C 10.9 °C 1015.5 hPa SSE 3.2 km/h 8 km/h 71% 0 mm
21:54 16.2 °C 10.9 °C 1015.5 hPa SSE 1.6 km/h 8 km/h 71% 0 mm
21:59 16.2 °C 10.9 °C 1015.5 hPa SE 1.6 km/h 6.4 km/h 71% 0 mm
22:04 16.2 °C 10.9 °C 1015.5 hPa SSE 4.8 km/h 4.8 km/h 71% 0 mm
22:09 16.1 °C 10.8 °C 1015.5 hPa South 1.6 km/h 8 km/h 71% 0 mm
22:14 16.1 °C 10.8 °C 1015.5 hPa Calm   8 km/h 71% 0 mm
22:19 16.1 °C 11.1 °C 1015.5 hPa ESE 3.2 km/h 4.8 km/h 72% 0 mm
22:24 16.1 °C 10.8 °C 1015.5 hPa SSE 1.6 km/h 6.4 km/h 71% 0 mm
22:29 16.1 °C 10.8 °C 1015.5 hPa Calm   4.8 km/h 71% 0 mm
22:34 16.1 °C 11 °C 1015.1 hPa Calm   4.8 km/h 72% 0 mm
22:39 16 °C 10.9 °C 1015.1 hPa Calm     72% 0 mm
22:44 16 °C 10.9 °C 1015.1 hPa SSW 1.6 km/h 9.7 km/h 72% 0 mm
22:49 16 °C 10.9 °C 1015.1 hPa SSW 1.6 km/h 9.7 km/h 72% 0 mm
22:54 15.9 °C 11.1 °C 1015.1 hPa SSW 1.6 km/h 6.4 km/h 73% 0 mm
22:59 15.9 °C 11.1 °C 1015.1 hPa SSW 1.6 km/h 9.7 km/h 73% 0 mm
23:04 15.9 °C 11.1 °C 1015.1 hPa SSW 1.6 km/h 9.7 km/h 73% 0 mm
23:09 15.9 °C 11.3 °C 1015.1 hPa SSE 6.4 km/h 8 km/h 74% 0 mm
23:15 15.8 °C 11.2 °C 1015.1 hPa SSW 3.2 km/h 12.9 km/h 74% 0 mm
23:24 15.7 °C 11.3 °C 1015.1 hPa SSW 4.8 km/h 11.3 km/h 75% 0 mm
23:29 15.4 °C 11.4 °C 1015.1 hPa SSW 4.8 km/h 11.3 km/h 77% 0 mm
23:39 14.8 °C 11.2 °C 1015.1 hPa South 6.4 km/h 9.7 km/h 79% 0.25 mm
23:44 14.6 °C 11.4 °C 1014.8 hPa South 3.2 km/h 9.7 km/h 81% 0.25 mm
23:49 14.4 °C 11.4 °C 1014.8 hPa South 1.6 km/h 9.7 km/h 82% 0.25 mm
23:54 14.3 °C 11.5 °C 1014.8 hPa South 1.6 km/h 6.4 km/h 83% 0.25 mm
23:59 14.2 °C 11.4 °C 1014.4 hPa South 1.6 km/h 6.4 km/h 83% 0.25 mm
Buffalo, New York, USA
Compliments of Weather Underground - 2.5 mb